La Jolla Heights (636, 617) Station Data

Red Flag Warning: No
Fire Weather Zone: 243
SDGE Region: Beach Cities
Lat/Lon: 32.844/-117.24

Observations

Time Wind Speed/Gust Temp(F) RH Fuel Moist Fuel Temp(F) Dewpt(F) Tmax(F) Tmin(F) Accum Precip 10-min Precip SL Press(mb)
2/27 11:40pm 267 9 G 13 52° 95% - - 50° 56.5° 48° - - -
2/27 11:20pm 267 12 G 17 51° 97% - - 51° 56.5° 48° - - -
2/27 11:10pm 266 11 G 16 51° 98% - - 51° 56.5° 48° - - -
2/27 11:00pm 268 10 G 20 52° 98% - - 51° 56.5° 48° - - -
2/27 10:50pm 267 8 G 14 52° 98% - - 51° 56.5° 48° - - -
2/27 10:40pm 265 11 G 18 52° 98% - - 52° 56.5° 48° - - -
2/27 10:30pm 271 9 G 16 53° 98% - - 52° 56.5° 48° - - -
2/27 10:20pm 268 11 G 15 53° 97% - - 52° 56.5° 48° - - -
2/27 10:10pm 270 10 G 15 53° 97% - - 52° 56.5° 48° - - -
2/27 10:00pm 270 9 G 16 53° 97% - - 52° 56.5° 48° - - -
2/27 9:50pm 269 9 G 15 53° 97% - - 53° 56.5° 48° - - -
2/27 9:40pm 273 8 G 13 53° 97% - - 53° 56.5° 48° - - -
2/27 9:30pm 275 8 G 13 53° 97% - - 52° 56.5° 48° - - -
2/27 9:20pm 277 7 G 13 54° 97% - - 53° 56.5° 48° - - -
2/27 9:10pm 282 7 G 12 54° 96% - - 53° 56.5° 48° - - -
2/27 9:00pm 254 10 G 19 55° 96% - - 54° 56.5° 48° - - -
2/27 8:50pm 164 6 G 14 55° 96% - - 54° 56.5° 48° - - -
2/27 8:40pm 172 8 G 16 55° 96% - - 54° 56.5° 48° - - -
2/27 8:30pm 171 9 G 17 55° 97% - - 54° 56.5° 48° - - -
2/27 8:20pm 164 8 G 17 55° 97% - - 55° 56.5° 48° - - -
2/27 8:10pm 172 9 G 18 56° 97% - - 55° 56.5° 48° - - -
2/27 8:00pm 171 8 G 16 56° 97% - - 55° 56.5° 48° - - -
2/27 7:50pm 174 7 G 28 56° 97% - - 55° 56.5° 48° - - -
2/27 7:40pm 181 8 G 18 56° 97% - - 55° 56.5° 48° - - -
2/27 7:30pm 166 8 G 15 56° 97% - - 55° 56.5° 48° - - -
2/27 7:20pm 171 9 G 17 56° 97% - - 55° 56.3° 48° - - -
2/27 7:10pm 174 8 G 18 56° 97% - - 55° 56.3° 48° - - -
2/27 7:00pm 175 7 G 14 56° 97% - - 55° 56.3° 48° - - -
2/27 6:50pm 182 7 G 15 56° 97% - - 55° 56.3° 48° - - -
2/27 6:40pm 169 7 G 14 55° 97% - - 55° 56.3° 48° - - -
2/27 6:30pm 148 6 G 14 55° 97% - - 54° 56.3° 48° - - -
2/27 6:20pm 186 7 G 16 55° 97% - - 54° 56.3° 48° - - -
2/27 6:10pm 183 8 G 20 55° 97% - - 54° 56.3° 48° - - -
2/27 6:00pm 177 8 G 18 56° 97% - - 55° 56.3° 48° - - -
2/27 5:50pm 178 8 G 20 56° 97% - - 55° 56.3° 48° - - -
2/27 5:40pm 167 8 G 14 56° 97% - - 55° 56.3° 48° - - -
2/27 5:30pm 175 5 G 12 56° 97% - - 55° 56.3° 48° - - -
2/27 5:20pm 176 6 G 19 56° 97% - - 55° 56.3° 48° - - -
2/27 5:10pm 178 6 G 12 56° 97% - - 55° 56.3° 48° - - -
2/27 5:00pm 172 8 G 16 56° 97% - - 55° 56.3° 48° - - -
2/27 4:50pm 174 9 G 18 56° 97% - - 55° 56.3° 48° - - -
2/27 4:40pm 189 7 G 16 56° 97% - - 55° 56.3° 48° - - -
2/27 4:30pm 178 10 G 23 56° 97% - - 55° 56.3° 48° - - -
2/27 4:20pm 166 10 G 19 56° 97% - - 55° 56.3° 48° - - -
2/27 4:10pm 163 11 G 21 56° 97% - - 55° 56.3° 48° - - -
2/27 4:00pm 165 9 G 22 56° 97% - - 55° 56.3° 48° - - -
2/27 3:50pm 171 11 G 26 56° 97% - - 55° 56.3° 48° - - -
2/27 3:40pm 169 9 G 19 56° 97% - - 55° 56.3° 48° - - -
2/27 3:30pm 181 8 G 17 56° 97% - - 55° 56.3° 48° - - -
2/27 3:20pm 175 9 G 16 56° 97% - - 55° 56.3° 48° - - -
2/27 3:10pm 185 8 G 18 56° 97% - - 55° 56.3° 48° - - -
2/27 3:00pm 172 9 G 20 56° 97% - - 55° 56.3° 48° - - -
2/27 2:50pm 155 9 G 20 56° 97% - - 55° 56.3° 48° - - -
2/27 2:40pm 154 11 G 19 56° 97% - - 55° 56.3° 48° - - -
2/27 2:30pm 152 14 G 24 56° 97% - - 55° 56.3° 48° - - -
2/27 2:20pm 168 11 G 20 56° 97% - - 55° 56.3° 48° - - -
2/27 2:10pm 173 10 G 19 56° 97% - - 55° 56.3° 48° - - -
2/27 2:00pm 160 11 G 22 56° 97% - - 55° 56.3° 48° - - -
2/27 1:50pm 165 13 G 25 55° 97% - - 55° 56.3° 48° - - -
2/27 1:40pm 174 9 G 18 55° 97% - - 55° 56.3° 48° - - -
2/27 1:30pm 172 8 G 16 55° 97% - - 55° 56.3° 48° - - -
2/27 1:20pm 179 7 G 15 55° 97% - - 55° 56.3° 48° - - -
2/27 1:10pm 179 9 G 20 55° 97% - - 54° 56.3° 48° - - -
2/27 1:00pm 177 9 G 25 55° 97% - - 54° 56.3° 48° - - -
2/27 12:50pm 172 6 G 13 56° 97% - - 55° 56.3° 48° - - -
2/27 12:40pm 177 8 G 16 56° 97% - - 55° 56.3° 48° - - -
2/27 12:30pm 174 8 G 21 56° 97% - - 55° 56.3° 48° - - -
2/27 12:20pm 173 10 G 19 55° 97% - - 54° 56.3° 48° - - -
2/27 12:10pm 176 9 G 20 55° 97% - - 55° 56.3° 48° - - -
2/27 12:00pm 178 9 G 20 56° 97% - - 55° 56.3° 48° - - -
2/27 11:50am 173 8 G 19 55° 97% - - 55° 56.3° 48° - - -
2/27 11:40am 173 8 G 15 55° 97% - - 54° 56.3° 48° - - -
2/27 11:30am 173 7 G 18 55° 97% - - 54° 56.3° 48° - - -
2/27 11:20am 173 8 G 17 55° 97% - - 54° 56.3° 48° - - -
2/27 11:10am 171 9 G 19 54° 97% - - 54° 56.3° 48° - - -
2/27 11:00am 157 10 G 19 54° 97% - - 54° 56.3° 48° - - -
2/27 10:50am 159 10 G 17 54° 97% - - 54° 56.3° 48° - - -
2/27 10:40am 158 9 G 22 55° 97% - - 54° 56.3° 48° - - -
2/27 10:30am 162 9 G 20 55° 97% - - 54° 56.3° 48° - - -
2/27 10:20am 169 7 G 19 55° 97% - - 54° 56.3° 48° - - -
2/27 10:10am 167 10 G 22 55° 97% - - 54° 56.3° 48° - - -
2/27 10:00am 170 9 G 25 55° 97% - - 54° 56.3° 48° - - -
2/27 9:50am 171 10 G 24 55° 97% - - 55° 56.3° 48° - - -
2/27 9:40am 170 9 G 22 56° 97% - - 55° 56.3° 48° - - -
2/27 9:30am 179 9 G 17 56° 98% - - 55° 56.3° 48° - - -
2/27 9:20am 166 9 G 16 56° 98% - - 55° 56.3° 48° - - -
2/27 9:10am 171 7 G 13 56° 98% - - 55° 56.3° 48° - - -
2/27 9:00am 181 8 G 18 56° 98% - - 55° 56.3° 48° - - -
2/27 8:50am 167 7 G 15 56° 98% - - 55° 56.3° 48° - - -
2/27 8:40am 163 8 G 15 56° 98% - - 55° 56.3° 48° - - -
2/27 8:30am 179 9 G 19 56° 98% - - 55° 56.3° 48° - - -
2/27 8:20am 171 9 G 18 56° 98% - - 55° 56.3° 48° - - -
2/27 8:10am 169 9 G 19 56° 98% - - 55° 56.3° 48° - - -
2/27 8:00am 172 8 G 18 56° 98% - - 55° 56.3° 48° - - -
2/27 7:50am 168 7 G 18 56° 98% - - 55° 56.3° 48° - - -
2/27 7:40am 171 7 G 17 56° 98% - - 55° 56.3° 48° - - -
2/27 7:30am 172 8 G 17 56° 97% - - 55° 56.3° 48° - - -
2/27 7:20am 170 8 G 19 56° 98% - - 55° 56.3° 48° - - -
2/27 7:10am 173 8 G 22 56° 98% - - 55° 56.3° 48° - - -
2/27 7:00am 171 6 G 13 56° 98% - - 55° 56.3° 48° - - -
2/27 6:50am 163 7 G 14 56° 98% - - 55° 56.3° 48° - - -
2/27 6:40am 178 8 G 17 56° 98% - - 55° 56.3° 48° - - -
2/27 6:30am 174 8 G 17 56° 98% - - 55° 56.3° 48° - - -
2/27 6:20am 165 8 G 16 56° 98% - - 55° 56.3° 48° - - -
2/27 6:10am 175 8 G 16 56° 98% - - 55° 56.3° 48° - - -
2/27 6:00am 167 8 G 15 56° 98% - - 55° 56.3° 48° - - -
2/27 5:50am 171 8 G 18 56° 98% - - 55° 56.2° 48° - - -
2/27 5:40am 165 8 G 17 56° 98% - - 55° 56.2° 48° - - -
2/27 5:30am 165 8 G 16 56° 98% - - 55° 56.1° 48° - - -
2/27 5:20am 164 7 G 14 55° 97% - - 55° 55.8° 48° - - -
2/27 5:10am 166 7 G 16 55° 98% - - 55° 55.8° 48° - - -
2/27 5:00am 152 5 G 11 55° 98% - - 54° 55.4° 48° - - -
2/27 4:50am 120 4 G 16 53° 97% - - 52° 54.3° 48° - - -
2/27 4:40am 110 5 G 9 52° 97% - - 51° 52.7° 48° - - -
2/27 4:30am 114 5 G 9 52° 97% - - 51° 52.1° 48° - - -
2/27 4:20am 108 6 G 8 51° 97% - - 50° 51.4° 48° - - -
2/27 4:10am 108 6 G 9 51° 97% - - 50° 51.2° 48° - - -
2/27 4:00am 107 6 G 10 50° 97% - - 49° 50.7° 48° - - -
2/27 3:50am 114 8 G 11 50° 97% - - 49° 50.6° 48° - - -
2/27 3:40am 124 7 G 10 50° 97% - - 49° 50.4° 48° - - -
2/27 3:30am 107 6 G 9 50° 97% - - 49° 50.4° 48° - - -
2/27 3:20am 103 6 G 8 50° 97% - - 49° 50.3° 48° - - -
2/27 3:10am 102 5 G 7 50° 97% - - 49° 50.2° 48° - - -
2/27 3:00am 108 5 G 8 50° 97% - - 49° 50.1° 48° - - -
2/27 2:50am 99 4 G 5 50° 97% - - 49° 50.1° 48° - - -
2/27 2:40am 92 4 G 6 50° 97% - - 49° 50.1° 48° - - -
2/27 2:30am 84 3 G 5 50° 97% - - 49° 50.1° 48° - - -
2/27 2:20am 88 4 G 5 50° 97% - - 49° 50.1° 48° - - -
2/27 2:10am 92 5 G 7 49° 97% - - 49° 50.1° 48° - - -
2/27 2:00am 91 6 G 8 50° 97% - - 49° 50.1° 48° - - -
2/27 1:50am 97 6 G 10 50° 97% - - 49° 50.1° 48° - - -
2/27 1:40am 103 6 G 9 49° 96% - - 48° 49.9° 48° - - -
2/27 1:30am 105 6 G 8 49° 96% - - 48° 49.9° 48° - - -
2/27 1:20am 110 5 G 7 49° 96% - - 48° 49.6° 48° - - -
2/27 1:10am 105 5 G 7 49° 96% - - 48° 49.4° 48° - - -
2/27 1:00am 110 5 G 9 49° 96% - - 48° 49.3° 48° - - -
2/27 12:50am 115 5 G 7 49° 96% - - 47° 49.2° 48° - - -
2/27 12:40am 114 4 G 6 49° 95% - - 47° 49.2° 48° - - -
2/27 12:30am 108 4 G 6 48° 95% - - 47° 48.9° 48° - - -
2/27 12:20am 117 3 G 4 48° 94% - - 47° 48.9° 48° - - -
2/27 12:10am 123 3 G 5 48° 93% - - 46° 48.9° 48° - - -
2/27 12:00am 121 3 G 4 48° 92% - - 46° 56.5° 46.6° - - -
2/26 11:50pm 101 3 G 5 48° 91% - - 46° 56.5° 46.6° - - -
2/26 11:40pm 105 4 G 5 48° 90% - - 45° 56.5° 46.6° - - -
2/26 11:30pm 111 3 G 5 47° 88% - - 44° 56.5° 46.6° - - -
2/26 11:20pm 111 3 G 4 47° 87% - - 44° 56.5° 46.8° - - -
2/26 11:10pm 110 3 G 5 48° 86% - - 44° 56.5° 47.1° - - -
2/26 11:00pm 116 4 G 5 48° 82% - - 43° 56.5° 47.1° - - -
2/26 10:50pm 133 3 G 5 50° 80% - - 44° 56.5° 47.5° - - -
2/26 10:40pm 133 3 G 4 49° 81% - - 44° 56.5° 47.5° - - -
2/26 10:30pm 124 2 G 4 49° 81% - - 44° 56.5° 47.5° - - -
2/26 10:20pm 136 4 G 5 49° 81% - - 43° 56.5° 47.5° - - -
2/26 10:10pm 134 3 G 5 49° 81% - - 43° 56.5° 47.5° - - -
2/26 10:00pm 134 3 G 4 49° 81% - - 44° 56.5° 47.5° - - -
2/26 9:50pm 113 3 G 4 48° 82% - - 43° 56.5° 47.5° - - -
2/26 9:40pm 84 2 G 4 51° 76% - - 43° 56.5° 48.1° - - -
2/26 9:30pm 69 2 G 2 51° 76% - - 43° 56.5° 48.1° - - -
2/26 9:20pm 59 2 G 2 51° 76% - - 43° 56.5° 48.1° - - -
2/26 9:10pm 71 2 G 2 51° 75% - - 44° 56.5° 48.1° - - -
2/26 9:00pm 79 2 G 3 50° 77% - - 44° 56.5° 48.1° - - -
2/26 8:50pm 132 2 G 3 52° 73% - - 43° 56.5° 48.1° - - -
2/26 8:40pm 263 2 G 3 52° 71% - - 43° 56.5° 48.1° - - -
2/26 8:30pm 260 2 G 3 52° 71% - - 43° 56.5° 48.1° - - -
2/26 8:20pm 254 3 G 4 52° 72% - - 43° 56.5° 48.1° - - -
2/26 8:10pm 257 4 G 7 53° 71% - - 44° 56.5° 48.1° - - -
2/26 8:00pm 261 5 G 6 52° 72% - - 44° 56.5° 48.1° - - -
2/26 7:50pm 262 6 G 8 52° 73% - - 44° 56.5° 48.1° - - -
2/26 7:40pm 266 7 G 9 52° 72% - - 44° 56.5° 48.1° - - -
2/26 7:30pm 267 5 G 8 52° 73% - - 44° 56.5° 48.1° - - -
2/26 7:20pm 260 5 G 8 52° 72% - - 44° 56.5° 48.1° - - -
2/26 7:10pm 252 4 G 6 52° 72% - - 44° 56.5° 48.1° - - -
2/26 7:00pm 250 5 G 7 52° 72% - - 43° 56.5° 48.1° - - -
2/26 6:50pm 251 5 G 7 52° 71% - - 43° 56.5° 48.1° - - -
2/26 6:40pm 257 5 G 8 52° 71% - - 43° 56.5° 48.1° - - -
2/26 6:30pm 257 4 G 6 52° 72% - - 43° 56.5° 48.1° - - -
2/26 6:20pm 250 5 G 7 52° 73% - - 44° 56.5° 48.1° - - -
2/26 6:10pm 253 5 G 8 52° 73% - - 44° 56.5° 48.1° - - -
2/26 6:00pm 247 4 G 7 52° 75% - - 44° 56.5° 48.1° - - -
2/26 5:50pm 263 3 G 8 52° 75% - - 45° 56.5° 48.1° - - -
2/26 5:40pm 264 4 G 7 53° 75% - - 45° 56.5° 48.1° - - -
2/26 5:30pm 249 3 G 6 53° 75% - - 46° 56.5° 48.1° - - -
2/26 5:20pm 251 3 G 8 54° 74% - - 45° 56.5° 48.1° - - -
2/26 5:10pm 248 5 G 10 54° 74% - - 46° 56.5° 48.1° - - -
2/26 5:00pm 245 6 G 11 54° 72% - - 46° 56.5° 48.1° - - -